sensor_id;sensor_type;location;lat;lon;timestamp;P1;P2;P0
76238;PMS7003;65043;48.392;-4.472;2023-04-03T00:01:27;17.25;12.25;8.50
76238;PMS7003;65043;48.392;-4.472;2023-04-03T00:03:53;10.25;10.25;6.25
76238;PMS7003;65043;48.392;-4.472;2023-04-03T00:06:18;14.50;11.00;7.25
76238;PMS7003;65043;48.392;-4.472;2023-04-03T00:08:44;13.00;10.25;8.00
76238;PMS7003;65043;48.392;-4.472;2023-04-03T00:11:09;18.75;10.50;7.00
76238;PMS7003;65043;48.392;-4.472;2023-04-03T00:13:35;12.00;12.00;7.00
76238;PMS7003;65043;48.392;-4.472;2023-04-03T00:16:00;12.75;10.75;7.25
76238;PMS7003;65043;48.392;-4.472;2023-04-03T00:18:28;16.00;12.50;8.00
76238;PMS7003;65043;48.392;-4.472;2023-04-03T00:20:53;13.75;9.75;7.00
76238;PMS7003;65043;48.392;-4.472;2023-04-03T00:23:19;13.75;10.00;6.25
76238;PMS7003;65043;48.392;-4.472;2023-04-03T00:25:44;12.00;9.50;6.00
76238;PMS7003;65043;48.392;-4.472;2023-04-03T00:28:10;8.50;8.00;6.00
76238;PMS7003;65043;48.392;-4.472;2023-04-03T00:30:35;10.00;8.00;6.75
76238;PMS7003;65043;48.392;-4.472;2023-04-03T00:33:01;12.75;10.00;6.75
76238;PMS7003;65043;48.392;-4.472;2023-04-03T00:35:27;9.00;7.75;5.00
76238;PMS7003;65043;48.392;-4.472;2023-04-03T00:37:54;7.00;7.00;5.25
76238;PMS7003;65043;48.392;-4.472;2023-04-03T00:40:21;8.50;7.25;4.50
76238;PMS7003;65043;48.392;-4.472;2023-04-03T00:42:49;7.00;5.50;4.00
76238;PMS7003;65043;48.392;-4.472;2023-04-03T00:48:01;7.25;5.25;3.25
76238;PMS7003;65043;48.392;-4.472;2023-04-03T00:50:30;8.00;5.00;3.25
76238;PMS7003;65043;48.392;-4.472;2023-04-03T00:52:59;4.50;4.50;3.00
76238;PMS7003;65043;48.392;-4.472;2023-04-03T00:55:25;9.00;6.00;4.00
76238;PMS7003;65043;48.392;-4.472;2023-04-03T00:57:51;6.00;6.00;4.00
76238;PMS7003;65043;48.392;-4.472;2023-04-03T01:00:19;6.00;5.00;4.75
76238;PMS7003;65043;48.392;-4.472;2023-04-03T01:02:47;5.00;5.00;4.00
76238;PMS7003;65043;48.392;-4.472;2023-04-03T01:05:12;5.00;4.25;3.50
76238;PMS7003;65043;48.392;-4.472;2023-04-03T01:07:41;5.00;5.00;4.25
76238;PMS7003;65043;48.392;-4.472;2023-04-03T01:10:08;6.00;4.25;3.75
76238;PMS7003;65043;48.392;-4.472;2023-04-03T01:12:39;4.75;4.75;4.00
76238;PMS7003;65043;48.392;-4.472;2023-04-03T01:17:34;8.25;5.75;4.50
76238;PMS7003;65043;48.392;-4.472;2023-04-03T01:25:16;6.25;6.00;4.00
76238;PMS7003;65043;48.392;-4.472;2023-04-03T01:27:42;8.50;5.50;4.00
76238;PMS7003;65043;48.392;-4.472;2023-04-03T01:30:08;8.75;7.75;5.75
76238;PMS7003;65043;48.392;-4.472;2023-04-03T01:32:34;7.00;6.25;5.00
76238;PMS7003;65043;48.392;-4.472;2023-04-03T01:34:59;8.75;6.25;4.00
76238;PMS7003;65043;48.392;-4.472;2023-04-03T01:37:25;7.25;6.00;5.25
76238;PMS7003;65043;48.392;-4.472;2023-04-03T01:39:50;7.00;5.00;3.50
76238;PMS7003;65043;48.392;-4.472;2023-04-03T01:42:16;6.00;5.75;4.00
76238;PMS7003;65043;48.392;-4.472;2023-04-03T01:44:41;6.00;6.00;4.00
76238;PMS7003;65043;48.392;-4.472;2023-04-03T01:47:07;6.00;6.00;4.00
76238;PMS7003;65043;48.392;-4.472;2023-04-03T01:49:32;7.00;6.00;4.00
76238;PMS7003;65043;48.392;-4.472;2023-04-03T01:51:58;6.50;5.75;4.00
76238;PMS7003;65043;48.392;-4.472;2023-04-03T01:54:23;7.75;6.00;4.25
76238;PMS7003;65043;48.392;-4.472;2023-04-03T01:56:49;8.25;6.75;4.75
76238;PMS7003;65043;48.392;-4.472;2023-04-03T01:59:15;5.25;5.25;4.25
76238;PMS7003;65043;48.392;-4.472;2023-04-03T02:01:42;6.75;6.00;4.75
76238;PMS7003;65043;48.392;-4.472;2023-04-03T02:04:10;5.00;5.00;4.00
76238;PMS7003;65043;48.392;-4.472;2023-04-03T02:06:36;6.00;6.00;4.50
76238;PMS7003;65043;48.392;-4.472;2023-04-03T02:09:02;8.00;6.25;4.00
76238;PMS7003;65043;48.392;-4.472;2023-04-03T02:11:28;7.50;6.00;4.25
76238;PMS7003;65043;48.392;-4.472;2023-04-03T02:13:53;6.00;6.00;4.00
76238;PMS7003;65043;48.392;-4.472;2023-04-03T02:16:18;10.00;7.00;5.00
76238;PMS7003;65043;48.392;-4.472;2023-04-03T02:18:44;6.25;6.25;4.75
76238;PMS7003;65043;48.392;-4.472;2023-04-03T02:21:09;8.00;6.00;4.50
76238;PMS7003;65043;48.392;-4.472;2023-04-03T02:23:35;10.00;9.00;6.00
76238;PMS7003;65043;48.392;-4.472;2023-04-03T02:26:06;6.75;5.75;4.00
76238;PMS7003;65043;48.392;-4.472;2023-04-03T02:28:37;9.00;6.25;4.75
76238;PMS7003;65043;48.392;-4.472;2023-04-03T02:31:03;7.00;6.75;4.50
76238;PMS7003;65043;48.392;-4.472;2023-04-03T02:33:30;6.75;6.25;5.00
76238;PMS7003;65043;48.392;-4.472;2023-04-03T02:35:56;7.50;4.00;3.00
76238;PMS7003;65043;48.392;-4.472;2023-04-03T02:38:22;7.75;6.50;5.00
76238;PMS7003;65043;48.392;-4.472;2023-04-03T02:40:48;6.50;6.50;5.00
76238;PMS7003;65043;48.392;-4.472;2023-04-03T02:43:13;9.50;7.00;4.00
76238;PMS7003;65043;48.392;-4.472;2023-04-03T02:45:39;8.50;6.00;4.25
76238;PMS7003;65043;48.392;-4.472;2023-04-03T02:48:05;6.00;5.75;4.00
76238;PMS7003;65043;48.392;-4.472;2023-04-03T02:50:30;3.25;3.25;3.00
76238;PMS7003;65043;48.392;-4.472;2023-04-03T02:52:56;7.00;7.00;5.00
76238;PMS7003;65043;48.392;-4.472;2023-04-03T02:55:21;10.00;7.75;4.00
76238;PMS7003;65043;48.392;-4.472;2023-04-03T02:57:47;7.00;7.00;5.00
76238;PMS7003;65043;48.392;-4.472;2023-04-03T03:00:12;8.25;7.00;5.00
76238;PMS7003;65043;48.392;-4.472;2023-04-03T03:02:38;8.25;5.75;4.00
76238;PMS7003;65043;48.392;-4.472;2023-04-03T03:05:03;8.50;5.50;4.25
76238;PMS7003;65043;48.392;-4.472;2023-04-03T03:07:29;7.75;6.00;4.00
76238;PMS7003;65043;48.392;-4.472;2023-04-03T03:09:55;6.50;6.50;4.50
76238;PMS7003;65043;48.392;-4.472;2023-04-03T03:12:20;6.00;6.00;5.00
76238;PMS7003;65043;48.392;-4.472;2023-04-03T03:14:47;7.75;5.75;4.00
76238;PMS7003;65043;48.392;-4.472;2023-04-03T03:17:15;5.00;5.00;4.00
76238;PMS7003;65043;48.392;-4.472;2023-04-03T03:19:41;11.00;7.25;4.50
76238;PMS7003;65043;48.392;-4.472;2023-04-03T03:22:07;5.75;5.25;4.00
76238;PMS7003;65043;48.392;-4.472;2023-04-03T03:24:32;5.00;5.00;4.00
76238;PMS7003;65043;48.392;-4.472;2023-04-03T03:26:58;5.00;5.00;4.00
76238;PMS7003;65043;48.392;-4.472;2023-04-03T03:29:23;6.50;6.25;4.00
76238;PMS7003;65043;48.392;-4.472;2023-04-03T03:31:48;8.25;6.25;5.00
76238;PMS7003;65043;48.392;-4.472;2023-04-03T03:34:14;6.00;6.00;4.00
76238;PMS7003;65043;48.392;-4.472;2023-04-03T03:36:39;7.25;7.25;4.00
76238;PMS7003;65043;48.392;-4.472;2023-04-03T03:39:06;7.00;6.00;5.00
76238;PMS7003;65043;48.392;-4.472;2023-04-03T03:41:31;7.75;5.00;3.75
76238;PMS7003;65043;48.392;-4.472;2023-04-03T03:43:57;6.50;5.75;4.00
76238;PMS7003;65043;48.392;-4.472;2023-04-03T03:46:22;5.50;5.50;3.25
76238;PMS7003;65043;48.392;-4.472;2023-04-03T03:48:47;4.75;4.50;3.25
76238;PMS7003;65043;48.392;-4.472;2023-04-03T03:51:13;6.00;5.00;3.25
76238;PMS7003;65043;48.392;-4.472;2023-04-03T03:53:39;11.25;5.75;4.50
76238;PMS7003;65043;48.392;-4.472;2023-04-03T03:56:05;6.50;6.50;5.00
76238;PMS7003;65043;48.392;-4.472;2023-04-03T03:58:30;6.25;5.00;2.50
76238;PMS7003;65043;48.392;-4.472;2023-04-03T04:00:59;5.75;5.75;4.50
76238;PMS7003;65043;48.392;-4.472;2023-04-03T04:03:26;8.00;4.75;2.00
76238;PMS7003;65043;48.392;-4.472;2023-04-03T04:05:52;5.25;4.25;3.00
76238;PMS7003;65043;48.392;-4.472;2023-04-03T04:08:18;6.00;4.00;3.00
76238;PMS7003;65043;48.392;-4.472;2023-04-03T04:10:43;5.00;3.00;2.00
76238;PMS7003;65043;48.392;-4.472;2023-04-03T04:13:08;6.75;5.75;3.25
76238;PMS7003;65043;48.392;-4.472;2023-04-03T04:15:34;7.50;6.00;3.50
76238;PMS7003;65043;48.392;-4.472;2023-04-03T04:17:59;8.25;7.00;3.00
76238;PMS7003;65043;48.392;-4.472;2023-04-03T04:20:25;6.25;5.75;4.00
76238;PMS7003;65043;48.392;-4.472;2023-04-03T04:22:50;6.50;4.25;3.00
76238;PMS7003;65043;48.392;-4.472;2023-04-03T04:25:16;5.00;5.00;3.00
76238;PMS7003;65043;48.392;-4.472;2023-04-03T04:27:41;8.00;5.25;4.00
76238;PMS7003;65043;48.392;-4.472;2023-04-03T04:30:07;8.50;7.00;5.00
76238;PMS7003;65043;48.392;-4.472;2023-04-03T04:32:33;5.00;4.50;4.00
76238;PMS7003;65043;48.392;-4.472;2023-04-03T04:34:58;6.75;4.00;3.50
76238;PMS7003;65043;48.392;-4.472;2023-04-03T04:37:24;6.00;5.25;3.00
76238;PMS7003;65043;48.392;-4.472;2023-04-03T04:39:50;6.50;6.50;4.25
76238;PMS7003;65043;48.392;-4.472;2023-04-03T04:42:15;5.75;4.75;4.00
76238;PMS7003;65043;48.392;-4.472;2023-04-03T04:44:41;6.00;4.75;3.00
76238;PMS7003;65043;48.392;-4.472;2023-04-03T04:47:07;6.25;5.50;4.00
76238;PMS7003;65043;48.392;-4.472;2023-04-03T04:49:32;7.75;5.50;4.00
76238;PMS7003;65043;48.392;-4.472;2023-04-03T04:51:58;5.50;5.50;3.75
76238;PMS7003;65043;48.392;-4.472;2023-04-03T04:54:23;3.75;3.75;3.00
76238;PMS7003;65043;48.392;-4.472;2023-04-03T04:56:49;7.00;7.00;4.00
76238;PMS7003;65043;48.392;-4.472;2023-04-03T04:59:14;6.00;5.75;4.00
76238;PMS7003;65043;48.392;-4.472;2023-04-03T05:01:40;10.50;7.75;5.00
76238;PMS7003;65043;48.392;-4.472;2023-04-03T05:04:05;7.00;5.50;4.00
76238;PMS7003;65043;48.392;-4.472;2023-04-03T05:06:31;8.25;5.50;4.00
76238;PMS7003;65043;48.392;-4.472;2023-04-03T05:08:58;5.00;5.00;4.00
76238;PMS7003;65043;48.392;-4.472;2023-04-03T05:11:23;7.00;5.00;4.00
76238;PMS7003;65043;48.392;-4.472;2023-04-03T05:13:49;7.00;5.50;4.00
76238;PMS7003;65043;48.392;-4.472;2023-04-03T05:16:14;5.50;5.50;4.25
76238;PMS7003;65043;48.392;-4.472;2023-04-03T05:18:40;5.25;5.25;3.50
76238;PMS7003;65043;48.392;-4.472;2023-04-03T05:21:05;6.75;6.00;4.50
76238;PMS7003;65043;48.392;-4.472;2023-04-03T05:23:31;8.00;7.00;5.00
76238;PMS7003;65043;48.392;-4.472;2023-04-03T05:25:56;5.75;4.00;3.00
76238;PMS7003;65043;48.392;-4.472;2023-04-03T05:28:22;9.00;6.00;4.00
76238;PMS7003;65043;48.392;-4.472;2023-04-03T05:30:54;6.00;5.25;3.50
76238;PMS7003;65043;48.392;-4.472;2023-04-03T05:33:21;7.75;6.25;4.00
76238;PMS7003;65043;48.392;-4.472;2023-04-03T05:35:46;7.00;6.00;4.00
76238;PMS7003;65043;48.392;-4.472;2023-04-03T05:38:12;5.75;5.75;4.00
76238;PMS7003;65043;48.392;-4.472;2023-04-03T05:40:37;4.75;4.75;3.50
76238;PMS7003;65043;48.392;-4.472;2023-04-03T05:43:03;6.00;6.00;4.00
76238;PMS7003;65043;48.392;-4.472;2023-04-03T05:45:29;5.25;5.25;3.75
76238;PMS7003;65043;48.392;-4.472;2023-04-03T05:47:54;7.25;5.75;4.00
76238;PMS7003;65043;48.392;-4.472;2023-04-03T05:50:20;6.25;6.25;4.00
76238;PMS7003;65043;48.392;-4.472;2023-04-03T05:52:46;5.50;5.00;2.50
76238;PMS7003;65043;48.392;-4.472;2023-04-03T05:55:14;7.25;6.00;4.00
76238;PMS7003;65043;48.392;-4.472;2023-04-03T05:57:40;7.50;7.00;5.00
76238;PMS7003;65043;48.392;-4.472;2023-04-03T06:00:06;4.50;4.50;4.00
76238;PMS7003;65043;48.392;-4.472;2023-04-03T06:02:34;11.00;7.00;5.00
76238;PMS7003;65043;48.392;-4.472;2023-04-03T06:05:00;6.00;6.00;5.00
76238;PMS7003;65043;48.392;-4.472;2023-04-03T06:07:26;6.00;6.00;5.00
76238;PMS7003;65043;48.392;-4.472;2023-04-03T06:09:54;6.75;6.75;4.00
76238;PMS7003;65043;48.392;-4.472;2023-04-03T06:12:22;4.00;4.00;3.75
76238;PMS7003;65043;48.392;-4.472;2023-04-03T06:14:48;3.50;3.00;2.75
76238;PMS7003;65043;48.392;-4.472;2023-04-03T06:17:14;9.50;7.00;5.25
76238;PMS7003;65043;48.392;-4.472;2023-04-03T06:19:41;8.00;7.00;6.00
76238;PMS7003;65043;48.392;-4.472;2023-04-03T06:22:07;4.75;3.25;2.00
76238;PMS7003;65043;48.392;-4.472;2023-04-03T06:24:32;6.75;6.75;4.75
76238;PMS7003;65043;48.392;-4.472;2023-04-03T06:26:58;5.25;5.25;5.00
76238;PMS7003;65043;48.392;-4.472;2023-04-03T06:29:23;7.00;7.00;4.25
76238;PMS7003;65043;48.392;-4.472;2023-04-03T06:31:49;9.25;8.75;6.00
76238;PMS7003;65043;48.392;-4.472;2023-04-03T06:34:15;8.00;8.00;6.25
76238;PMS7003;65043;48.392;-4.472;2023-04-03T06:36:41;10.00;9.25;6.25
76238;PMS7003;65043;48.392;-4.472;2023-04-03T06:39:08;11.50;10.50;7.00
76238;PMS7003;65043;48.392;-4.472;2023-04-03T06:41:38;12.00;10.00;7.25
76238;PMS7003;65043;48.392;-4.472;2023-04-03T06:44:03;11.25;9.50;6.25
76238;PMS7003;65043;48.392;-4.472;2023-04-03T06:46:29;12.00;10.25;6.50
76238;PMS7003;65043;48.392;-4.472;2023-04-03T06:48:54;8.00;8.00;6.00
76238;PMS7003;65043;48.392;-4.472;2023-04-03T06:51:21;9.00;8.75;6.75
76238;PMS7003;65043;48.392;-4.472;2023-04-03T06:53:49;8.75;8.75;7.00
76238;PMS7003;65043;48.392;-4.472;2023-04-03T06:56:16;10.25;7.75;6.00
76238;PMS7003;65043;48.392;-4.472;2023-04-03T06:58:42;14.00;6.25;4.75
76238;PMS7003;65043;48.392;-4.472;2023-04-03T07:01:09;7.75;7.75;6.75
76238;PMS7003;65043;48.392;-4.472;2023-04-03T07:03:35;10.75;9.25;6.00
76238;PMS7003;65043;48.392;-4.472;2023-04-03T07:06:02;8.00;6.25;5.25
76238;PMS7003;65043;48.392;-4.472;2023-04-03T07:08:28;10.25;8.25;6.00
76238;PMS7003;65043;48.392;-4.472;2023-04-03T07:10:53;8.75;8.50;6.00
76238;PMS7003;65043;48.392;-4.472;2023-04-03T07:13:19;12.00;8.25;7.00
76238;PMS7003;65043;48.392;-4.472;2023-04-03T07:15:45;6.25;6.00;4.75
76238;PMS7003;65043;48.392;-4.472;2023-04-03T07:18:10;8.00;8.00;5.75
76238;PMS7003;65043;48.392;-4.472;2023-04-03T07:20:36;9.00;7.25;4.75
76238;PMS7003;65043;48.392;-4.472;2023-04-03T07:23:01;6.75;5.75;4.00
76238;PMS7003;65043;48.392;-4.472;2023-04-03T07:25:27;10.00;7.00;4.75
76238;PMS7003;65043;48.392;-4.472;2023-04-03T07:27:53;10.50;6.25;4.25
76238;PMS7003;65043;48.392;-4.472;2023-04-03T07:30:19;7.00;7.00;4.25
76238;PMS7003;65043;48.392;-4.472;2023-04-03T07:32:45;7.50;6.50;4.00
76238;PMS7003;65043;48.392;-4.472;2023-04-03T07:35:11;7.25;6.25;4.25
76238;PMS7003;65043;48.392;-4.472;2023-04-03T07:37:37;9.50;7.00;5.25
76238;PMS7003;65043;48.392;-4.472;2023-04-03T07:40:02;7.00;7.00;4.50
76238;PMS7003;65043;48.392;-4.472;2023-04-03T07:42:29;5.50;4.25;4.00
76238;PMS7003;65043;48.392;-4.472;2023-04-03T07:44:55;7.00;7.00;5.00
76238;PMS7003;65043;48.392;-4.472;2023-04-03T07:47:21;6.25;5.50;3.75
76238;PMS7003;65043;48.392;-4.472;2023-04-03T07:49:47;5.50;5.50;3.00
76238;PMS7003;65043;48.392;-4.472;2023-04-03T07:52:13;6.50;6.00;4.00
76238;PMS7003;65043;48.392;-4.472;2023-04-03T07:54:40;8.00;6.00;4.00
76238;PMS7003;65043;48.392;-4.472;2023-04-03T07:57:06;6.75;5.00;3.00
76238;PMS7003;65043;48.392;-4.472;2023-04-03T07:59:31;7.00;5.00;3.50
76238;PMS7003;65043;48.392;-4.472;2023-04-03T08:01:57;6.00;4.25;3.50
76238;PMS7003;65043;48.392;-4.472;2023-04-03T08:04:22;6.00;5.50;4.00
76238;PMS7003;65043;48.392;-4.472;2023-04-03T08:06:48;6.25;4.50;3.25
76238;PMS7003;65043;48.392;-4.472;2023-04-03T08:09:14;3.25;3.25;3.00
76238;PMS7003;65043;48.392;-4.472;2023-04-03T08:11:40;5.00;5.00;4.00
76238;PMS7003;65043;48.392;-4.472;2023-04-03T08:14:05;5.25;4.25;3.00
76238;PMS7003;65043;48.392;-4.472;2023-04-03T08:16:31;5.25;5.25;4.00
76238;PMS7003;65043;48.392;-4.472;2023-04-03T08:18:57;8.00;4.00;3.00
76238;PMS7003;65043;48.392;-4.472;2023-04-03T08:21:22;5.00;5.00;4.00
76238;PMS7003;65043;48.392;-4.472;2023-04-03T08:23:48;4.50;2.50;2.00
76238;PMS7003;65043;48.392;-4.472;2023-04-03T08:26:16;6.25;4.50;2.50
76238;PMS7003;65043;48.392;-4.472;2023-04-03T08:28:44;9.00;4.25;3.00
76238;PMS7003;65043;48.392;-4.472;2023-04-03T08:31:10;4.00;2.50;2.00
76238;PMS7003;65043;48.392;-4.472;2023-04-03T08:33:38;6.00;4.25;3.50
76238;PMS7003;65043;48.392;-4.472;2023-04-03T08:36:05;4.75;3.25;2.50
76238;PMS7003;65043;48.392;-4.472;2023-04-03T08:38:41;5.50;4.00;2.00
76238;PMS7003;65043;48.392;-4.472;2023-04-03T08:41:14;3.00;3.00;2.00
76238;PMS7003;65043;48.392;-4.472;2023-04-03T08:46:54;2.75;2.75;2.00
76238;PMS7003;65043;48.392;-4.472;2023-04-03T08:49:35;4.50;4.25;3.00
76238;PMS7003;65043;48.392;-4.472;2023-04-03T08:52:04;6.75;4.00;3.00
76238;PMS7003;65043;48.392;-4.472;2023-04-03T08:54:35;5.00;4.00;3.00
76238;PMS7003;65043;48.392;-4.472;2023-04-03T08:57:13;5.50;5.25;4.00
76238;PMS7003;65043;48.392;-4.472;2023-04-03T08:59:38;5.00;5.00;3.00
76238;PMS7003;65043;48.392;-4.472;2023-04-03T09:02:15;4.50;4.00;3.00
76238;PMS7003;65043;48.392;-4.472;2023-04-03T09:04:52;5.00;4.00;3.00
76238;PMS7003;65043;48.392;-4.472;2023-04-03T09:07:33;4.25;3.50;3.00
76238;PMS7003;65043;48.392;-4.472;2023-04-03T09:10:29;7.00;3.75;2.50
76238;PMS7003;65043;48.392;-4.472;2023-04-03T09:13:03;5.00;4.25;2.00
76238;PMS7003;65043;48.392;-4.472;2023-04-03T09:15:38;7.25;4.00;3.00
76238;PMS7003;65043;48.392;-4.472;2023-04-03T09:18:15;3.75;3.75;2.00
76238;PMS7003;65043;48.392;-4.472;2023-04-03T09:23:50;7.25;4.75;3.00
76238;PMS7003;65043;48.392;-4.472;2023-04-03T09:26:18;5.50;4.00;3.00
76238;PMS7003;65043;48.392;-4.472;2023-04-03T09:29:07;5.00;5.00;3.00
76238;PMS7003;65043;48.392;-4.472;2023-04-03T09:31:37;5.00;3.25;3.00
76238;PMS7003;65043;48.392;-4.472;2023-04-03T09:34:09;4.75;4.75;3.00
76238;PMS7003;65043;48.392;-4.472;2023-04-03T09:39:10;6.25;4.75;3.00
76238;PMS7003;65043;48.392;-4.472;2023-04-03T09:41:41;6.25;4.00;3.00
76238;PMS7003;65043;48.392;-4.472;2023-04-03T09:44:24;4.25;4.25;3.00
76238;PMS7003;65043;48.392;-4.472;2023-04-03T09:46:51;4.00;4.00;3.25
76238;PMS7003;65043;48.392;-4.472;2023-04-03T09:49:17;9.25;5.75;4.00
76238;PMS7003;65043;48.392;-4.472;2023-04-03T09:51:43;11.00;6.25;3.00
76238;PMS7003;65043;48.392;-4.472;2023-04-03T09:57:35;4.25;3.00;3.00
76238;PMS7003;65043;48.392;-4.472;2023-04-03T09:59:57;7.00;6.50;3.00
76238;PMS7003;65043;48.392;-4.472;2023-04-03T10:02:40;3.50;3.50;2.00
76238;PMS7003;65043;48.392;-4.472;2023-04-03T10:10:38;4.25;4.25;3.00
76238;PMS7003;65043;48.392;-4.472;2023-04-03T10:15:36;10.25;5.00;3.00
76238;PMS7003;65043;48.392;-4.472;2023-04-03T10:20:52;5.75;3.00;3.00
76238;PMS7003;65043;48.392;-4.472;2023-04-03T10:23:22;3.50;3.50;2.00
76238;PMS7003;65043;48.392;-4.472;2023-04-03T10:25:59;2.25;2.25;1.25
76238;PMS7003;65043;48.392;-4.472;2023-04-03T10:28:53;5.25;3.75;2.00
76238;PMS7003;65043;48.392;-4.472;2023-04-03T10:31:34;4.00;4.00;2.50
76238;PMS7003;65043;48.392;-4.472;2023-04-03T10:34:17;4.25;3.00;2.75
76238;PMS7003;65043;48.392;-4.472;2023-04-03T10:42:46;3.75;3.75;2.50
76238;PMS7003;65043;48.392;-4.472;2023-04-03T10:45:26;3.75;3.75;2.00
76238;PMS7003;65043;48.392;-4.472;2023-04-03T11:01:33;2.25;2.25;2.00
76238;PMS7003;65043;48.392;-4.472;2023-04-03T11:04:03;6.50;2.50;1.00
76238;PMS7003;65043;48.392;-4.472;2023-04-03T11:06:32;2.25;2.25;2.00
76238;PMS7003;65043;48.392;-4.472;2023-04-03T11:11:50;3.00;3.00;2.00
76238;PMS7003;65043;48.392;-4.472;2023-04-03T11:17:40;2.00;2.00;1.00
76238;PMS7003;65043;48.392;-4.472;2023-04-03T11:22:30;4.00;4.00;2.00
76238;PMS7003;65043;48.392;-4.472;2023-04-03T11:25:03;6.25;3.00;2.00
76238;PMS7003;65043;48.392;-4.472;2023-04-03T11:30:07;3.00;3.00;1.00
76238;PMS7003;65043;48.392;-4.472;2023-04-03T11:32:52;2.00;2.00;1.00
76238;PMS7003;65043;48.392;-4.472;2023-04-03T11:35:30;3.50;2.50;1.00
76238;PMS7003;65043;48.392;-4.472;2023-04-03T11:37:57;3.00;3.00;2.00
76238;PMS7003;65043;48.392;-4.472;2023-04-03T11:40:33;4.50;2.00;1.00
76238;PMS7003;65043;48.392;-4.472;2023-04-03T11:50:46;2.00;2.00;1.00
76238;PMS7003;65043;48.392;-4.472;2023-04-03T12:26:51;11.00;7.50;5.25
76238;PMS7003;65043;48.392;-4.472;2023-04-03T12:29:46;11.50;7.00;4.75
76238;PMS7003;65043;48.392;-4.472;2023-04-03T12:48:38;5.00;4.00;3.00
76238;PMS7003;65043;48.392;-4.472;2023-04-03T12:51:27;6.00;5.00;3.00
76238;PMS7003;65043;48.392;-4.472;2023-04-03T12:54:26;4.50;3.50;3.25
76238;PMS7003;65043;48.392;-4.472;2023-04-03T12:57:12;3.75;2.00;2.00
76238;PMS7003;65043;48.392;-4.472;2023-04-03T12:59:40;5.00;4.00;3.25
76238;PMS7003;65043;48.392;-4.472;2023-04-03T13:04:55;4.00;3.50;3.00
76238;PMS7003;65043;48.392;-4.472;2023-04-03T13:07:29;7.25;3.75;3.00
76238;PMS7003;65043;48.392;-4.472;2023-04-03T13:10:19;8.25;5.50;3.00
76238;PMS7003;65043;48.392;-4.472;2023-04-03T13:12:54;4.00;2.00;1.50
76238;PMS7003;65043;48.392;-4.472;2023-04-03T13:15:40;4.25;3.25;1.75
76238;PMS7003;65043;48.392;-4.472;2023-04-03T13:20:58;3.50;2.00;1.50
76238;PMS7003;65043;48.392;-4.472;2023-04-03T13:23:27;3.50;2.25;1.50
76238;PMS7003;65043;48.392;-4.472;2023-04-03T13:25:54;3.25;3.25;2.25
76238;PMS7003;65043;48.392;-4.472;2023-04-03T13:28:21;2.00;2.00;1.50
76238;PMS7003;65043;48.392;-4.472;2023-04-03T13:31:14;4.75;2.00;1.00
76238;PMS7003;65043;48.392;-4.472;2023-04-03T13:33:52;2.00;2.00;1.00
76238;PMS7003;65043;48.392;-4.472;2023-04-03T13:36:21;1.75;1.75;1.25
76238;PMS7003;65043;48.392;-4.472;2023-04-03T13:39:00;6.25;2.00;1.50
76238;PMS7003;65043;48.392;-4.472;2023-04-03T13:41:36;4.00;1.75;1.00
76238;PMS7003;65043;48.392;-4.472;2023-04-03T13:44:17;3.25;2.00;1.25
76238;PMS7003;65043;48.392;-4.472;2023-04-03T13:46:43;2.00;1.00;0.75
76238;PMS7003;65043;48.392;-4.472;2023-04-03T13:49:23;2.75;1.75;1.75
76238;PMS7003;65043;48.392;-4.472;2023-04-03T13:52:03;2.00;2.00;1.75
76238;PMS7003;65043;48.392;-4.472;2023-04-03T13:55:00;2.50;2.00;1.00
76238;PMS7003;65043;48.392;-4.472;2023-04-03T13:57:34;1.50;1.50;1.00
76238;PMS7003;65043;48.392;-4.472;2023-04-03T14:00:18;2.00;1.75;1.00
76238;PMS7003;65043;48.392;-4.472;2023-04-03T14:02:46;2.25;1.00;1.00
76238;PMS7003;65043;48.392;-4.472;2023-04-03T14:05:12;1.50;1.50;1.00
76238;PMS7003;65043;48.392;-4.472;2023-04-03T14:07:38;2.50;1.00;1.00
76238;PMS7003;65043;48.392;-4.472;2023-04-03T14:10:03;1.25;1.25;1.00
76238;PMS7003;65043;48.392;-4.472;2023-04-03T14:12:34;3.00;1.25;1.00
76238;PMS7003;65043;48.392;-4.472;2023-04-03T14:15:03;3.00;3.00;1.00
76238;PMS7003;65043;48.392;-4.472;2023-04-03T14:17:40;1.50;1.50;1.00
76238;PMS7003;65043;48.392;-4.472;2023-04-03T14:20:05;2.00;1.00;1.00
76238;PMS7003;65043;48.392;-4.472;2023-04-03T14:22:32;1.00;1.00;0.75
76238;PMS7003;65043;48.392;-4.472;2023-04-03T14:24:59;4.00;3.00;2.25
76238;PMS7003;65043;48.392;-4.472;2023-04-03T14:27:27;3.25;2.00;1.00
76238;PMS7003;65043;48.392;-4.472;2023-04-03T14:29:54;2.25;2.25;2.00
76238;PMS7003;65043;48.392;-4.472;2023-04-03T14:32:22;1.75;1.50;1.00
76238;PMS7003;65043;48.392;-4.472;2023-04-03T14:34:50;1.00;1.00;1.00
76238;PMS7003;65043;48.392;-4.472;2023-04-03T14:37:18;1.00;1.00;0.25
76238;PMS7003;65043;48.392;-4.472;2023-04-03T14:39:46;2.00;2.00;1.00
76238;PMS7003;65043;48.392;-4.472;2023-04-03T14:42:13;3.00;3.00;2.00
76238;PMS7003;65043;48.392;-4.472;2023-04-03T14:44:44;2.00;2.00;1.00
76238;PMS7003;65043;48.392;-4.472;2023-04-03T14:47:11;4.00;2.00;1.00
76238;PMS7003;65043;48.392;-4.472;2023-04-03T14:49:42;3.50;2.25;2.00
76238;PMS7003;65043;48.392;-4.472;2023-04-03T14:52:24;1.50;1.50;1.00
76238;PMS7003;65043;48.392;-4.472;2023-04-03T14:54:53;1.50;1.00;1.00
76238;PMS7003;65043;48.392;-4.472;2023-04-03T14:57:19;2.50;2.00;1.00
76238;PMS7003;65043;48.392;-4.472;2023-04-03T14:59:48;2.50;2.00;1.00
76238;PMS7003;65043;48.392;-4.472;2023-04-03T15:04:56;2.00;1.00;0.00
76238;PMS7003;65043;48.392;-4.472;2023-04-03T15:07:23;3.25;3.00;1.25
76238;PMS7003;65043;48.392;-4.472;2023-04-03T15:09:50;1.25;1.25;1.00
76238;PMS7003;65043;48.392;-4.472;2023-04-03T15:12:16;2.50;2.50;1.00
76238;PMS7003;65043;48.392;-4.472;2023-04-03T15:14:42;3.50;3.50;1.25
76238;PMS7003;65043;48.392;-4.472;2023-04-03T15:17:10;2.00;1.75;1.25
76238;PMS7003;65043;48.392;-4.472;2023-04-03T15:19:40;3.00;1.75;1.00
76238;PMS7003;65043;48.392;-4.472;2023-04-03T15:22:06;1.00;1.00;1.00
76238;PMS7003;65043;48.392;-4.472;2023-04-03T15:24:33;3.00;3.00;2.00
76238;PMS7003;65043;48.392;-4.472;2023-04-03T15:26:59;2.75;2.75;1.00
76238;PMS7003;65043;48.392;-4.472;2023-04-03T15:29:25;3.25;2.75;2.50
76238;PMS7003;65043;48.392;-4.472;2023-04-03T15:31:52;6.25;3.00;3.00
76238;PMS7003;65043;48.392;-4.472;2023-04-03T15:34:18;5.75;2.25;2.00
76238;PMS7003;65043;48.392;-4.472;2023-04-03T15:36:43;2.25;2.25;2.00
76238;PMS7003;65043;48.392;-4.472;2023-04-03T15:39:09;3.25;3.25;2.00
76238;PMS7003;65043;48.392;-4.472;2023-04-03T15:41:35;5.00;3.00;2.00
76238;PMS7003;65043;48.392;-4.472;2023-04-03T15:44:00;3.25;2.50;2.00
76238;PMS7003;65043;48.392;-4.472;2023-04-03T15:46:25;2.00;2.00;1.00
76238;PMS7003;65043;48.392;-4.472;2023-04-03T15:48:51;5.25;3.00;1.00
76238;PMS7003;65043;48.392;-4.472;2023-04-03T15:51:16;4.75;2.25;1.00
76238;PMS7003;65043;48.392;-4.472;2023-04-03T15:53:42;6.00;5.00;1.00
76238;PMS7003;65043;48.392;-4.472;2023-04-03T15:56:08;3.50;3.50;1.50
76238;PMS7003;65043;48.392;-4.472;2023-04-03T15:58:34;3.00;3.00;2.00
76238;PMS7003;65043;48.392;-4.472;2023-04-03T16:01:00;2.00;1.50;1.50
76238;PMS7003;65043;48.392;-4.472;2023-04-03T16:03:26;4.00;2.00;2.00
76238;PMS7003;65043;48.392;-4.472;2023-04-03T16:05:52;3.25;3.00;2.00
76238;PMS7003;65043;48.392;-4.472;2023-04-03T16:08:18;3.25;2.50;1.00
76238;PMS7003;65043;48.392;-4.472;2023-04-03T16:10:43;4.00;3.00;2.00
76238;PMS7003;65043;48.392;-4.472;2023-04-03T16:13:11;3.00;3.00;2.00
76238;PMS7003;65043;48.392;-4.472;2023-04-03T16:15:36;6.50;3.00;2.00
76238;PMS7003;65043;48.392;-4.472;2023-04-03T16:18:02;4.00;2.00;1.00
76238;PMS7003;65043;48.392;-4.472;2023-04-03T16:20:29;2.00;2.00;2.00
76238;PMS7003;65043;48.392;-4.472;2023-04-03T16:22:56;2.25;2.00;2.00
76238;PMS7003;65043;48.392;-4.472;2023-04-03T16:25:23;4.00;3.25;2.00